sensor_id;sensor_type;location;lat;lon;timestamp;pressure;altitude;pressure_sealevel;temperature;humidity
37202;BME280;37799;52.390;6.136;2023-09-19T00:02:18;100600.03;;;14.50;100.00
37202;BME280;37799;52.390;6.136;2023-09-19T00:04:43;100620.38;;;14.60;100.00
37202;BME280;37799;52.390;6.136;2023-09-19T00:07:09;100614.50;;;14.55;100.00
37202;BME280;37799;52.390;6.136;2023-09-19T00:09:35;100621.41;;;14.56;100.00
37202;BME280;37799;52.390;6.136;2023-09-19T00:12:06;100621.06;;;14.45;100.00
37202;BME280;37799;52.390;6.136;2023-09-19T00:14:32;100629.13;;;14.39;100.00
37202;BME280;37799;52.390;6.136;2023-09-19T00:17:03;100631.44;;;14.47;100.00
37202;BME280;37799;52.390;6.136;2023-09-19T00:19:31;100629.41;;;14.33;100.00
37202;BME280;37799;52.390;6.136;2023-09-19T00:21:57;100629.66;;;14.27;100.00
37202;BME280;37799;52.390;6.136;2023-09-19T00:24:23;100636.63;;;14.26;100.00
37202;BME280;37799;52.390;6.136;2023-09-19T00:26:48;100638.31;;;14.27;100.00
37202;BME280;37799;52.390;6.136;2023-09-19T00:29:13;100640.00;;;14.28;100.00
37202;BME280;37799;52.390;6.136;2023-09-19T00:31:43;100644.06;;;14.35;100.00
37202;BME280;37799;52.390;6.136;2023-09-19T00:34:09;100643.41;;;14.30;100.00
37202;BME280;37799;52.390;6.136;2023-09-19T00:36:36;100648.22;;;14.19;100.00
37202;BME280;37799;52.390;6.136;2023-09-19T00:39:03;100636.19;;;14.16;100.00
37202;BME280;37799;52.390;6.136;2023-09-19T00:41:31;100633.03;;;14.29;100.00
37202;BME280;37799;52.390;6.136;2023-09-19T00:43:56;100634.19;;;14.23;100.00
37202;BME280;37799;52.390;6.136;2023-09-19T00:46:21;100642.31;;;14.15;100.00
37202;BME280;37799;52.390;6.136;2023-09-19T00:48:47;100649.34;;;14.13;100.00
37202;BME280;37799;52.390;6.136;2023-09-19T00:51:13;100649.09;;;14.20;100.00
37202;BME280;37799;52.390;6.136;2023-09-19T00:53:39;100656.09;;;14.17;100.00
37202;BME280;37799;52.390;6.136;2023-09-19T00:56:07;100660.69;;;14.12;100.00
37202;BME280;37799;52.390;6.136;2023-09-19T00:58:34;100663.66;;;14.24;100.00
37202;BME280;37799;52.390;6.136;2023-09-19T01:01:01;100664.72;;;14.20;100.00
37202;BME280;37799;52.390;6.136;2023-09-19T01:03:27;100673.31;;;14.22;100.00
37202;BME280;37799;52.390;6.136;2023-09-19T01:05:53;100669.66;;;14.26;100.00
37202;BME280;37799;52.390;6.136;2023-09-19T01:08:18;100675.00;;;14.23;100.00
37202;BME280;37799;52.390;6.136;2023-09-19T01:10:51;100667.25;;;14.21;100.00
37202;BME280;37799;52.390;6.136;2023-09-19T01:13:34;100675.13;;;14.20;100.00
37202;BME280;37799;52.390;6.136;2023-09-19T01:16:16;100680.88;;;14.07;100.00
37202;BME280;37799;52.390;6.136;2023-09-19T01:18:59;100673.25;;;14.03;100.00
37202;BME280;37799;52.390;6.136;2023-09-19T01:21:30;100676.22;;;14.14;100.00
37202;BME280;37799;52.390;6.136;2023-09-19T01:27:17;100680.47;;;14.16;100.00
37202;BME280;37799;52.390;6.136;2023-09-19T01:29:49;100683.66;;;14.03;100.00
37202;BME280;37799;52.390;6.136;2023-09-19T01:32:19;100681.41;;;13.95;100.00
37202;BME280;37799;52.390;6.136;2023-09-19T01:34:52;100686.59;;;13.95;100.00
37202;BME280;37799;52.390;6.136;2023-09-19T01:37:19;100691.66;;;13.98;100.00
37202;BME280;37799;52.390;6.136;2023-09-19T01:39:50;100689.44;;;13.89;100.00
37202;BME280;37799;52.390;6.136;2023-09-19T01:42:29;100684.00;;;13.95;100.00
37202;BME280;37799;52.390;6.136;2023-09-19T01:45:08;100678.88;;;13.94;100.00
37202;BME280;37799;52.390;6.136;2023-09-19T01:47:54;100679.63;;;13.96;100.00
37202;BME280;37799;52.390;6.136;2023-09-19T01:50:36;100686.59;;;13.95;100.00
37202;BME280;37799;52.390;6.136;2023-09-19T01:53:26;100682.94;;;13.79;100.00
37202;BME280;37799;52.390;6.136;2023-09-19T01:55:57;100687.97;;;13.83;100.00
37202;BME280;37799;52.390;6.136;2023-09-19T01:58:42;100686.00;;;13.88;100.00
37202;BME280;37799;52.390;6.136;2023-09-19T02:01:12;100684.78;;;13.97;100.00
37202;BME280;37799;52.390;6.136;2023-09-19T02:03:41;100685.94;;;13.90;100.00
37202;BME280;37799;52.390;6.136;2023-09-19T02:06:06;100685.03;;;13.91;100.00
37202;BME280;37799;52.390;6.136;2023-09-19T02:08:36;100688.09;;;13.80;100.00
37202;BME280;37799;52.390;6.136;2023-09-19T02:11:02;100696.97;;;13.75;100.00
37202;BME280;37799;52.390;6.136;2023-09-19T02:13:27;100695.00;;;13.81;100.00
37202;BME280;37799;52.390;6.136;2023-09-19T02:15:53;100691.00;;;13.93;100.00
37202;BME280;37799;52.390;6.136;2023-09-19T02:18:19;100688.09;;;13.80;100.00
37202;BME280;37799;52.390;6.136;2023-09-19T02:20:45;100693.31;;;13.80;100.00
37202;BME280;37799;52.390;6.136;2023-09-19T02:23:12;100679.72;;;13.94;100.00
37202;BME280;37799;52.390;6.136;2023-09-19T02:25:38;100679.81;;;13.91;100.00
37202;BME280;37799;52.390;6.136;2023-09-19T02:28:05;100676.28;;;13.92;100.00
37202;BME280;37799;52.390;6.136;2023-09-19T02:30:31;100683.94;;;13.97;100.00
37202;BME280;37799;52.390;6.136;2023-09-19T02:32:57;100686.19;;;14.04;100.00
37202;BME280;37799;52.390;6.136;2023-09-19T02:35:22;100692.13;;;14.08;100.00
37202;BME280;37799;52.390;6.136;2023-09-19T02:37:48;100682.44;;;14.11;100.00
37202;BME280;37799;52.390;6.136;2023-09-19T02:40:14;100688.34;;;14.15;100.00
37202;BME280;37799;52.390;6.136;2023-09-19T02:42:53;100699.59;;;14.15;100.00
37202;BME280;37799;52.390;6.136;2023-09-19T02:45:19;100699.91;;;14.28;100.00
37202;BME280;37799;52.390;6.136;2023-09-19T02:47:46;100698.06;;;14.11;100.00
37202;BME280;37799;52.390;6.136;2023-09-19T02:50:12;100698.50;;;14.21;100.00
37202;BME280;37799;52.390;6.136;2023-09-19T02:52:40;100705.19;;;14.27;100.00
37202;BME280;37799;52.390;6.136;2023-09-19T02:55:07;100700.31;;;14.19;100.00
37202;BME280;37799;52.390;6.136;2023-09-19T02:57:34;100695.31;;;14.14;100.00
37202;BME280;37799;52.390;6.136;2023-09-19T03:00:00;100694.66;;;14.09;100.00
37202;BME280;37799;52.390;6.136;2023-09-19T03:02:26;100701.56;;;14.10;100.00
37202;BME280;37799;52.390;6.136;2023-09-19T03:04:53;100706.50;;;14.16;100.00
37202;BME280;37799;52.390;6.136;2023-09-19T03:07:18;100706.56;;;14.15;100.00
37202;BME280;37799;52.390;6.136;2023-09-19T03:09:43;100710.09;;;14.14;100.00
37202;BME280;37799;52.390;6.136;2023-09-19T03:12:10;100718.22;;;14.27;100.00
37202;BME280;37799;52.390;6.136;2023-09-19T03:14:35;100709.00;;;14.20;100.00
37202;BME280;37799;52.390;6.136;2023-09-19T03:17:01;100706.63;;;14.13;100.00
37202;BME280;37799;52.390;6.136;2023-09-19T03:19:30;100708.41;;;14.13;100.00
37202;BME280;37799;52.390;6.136;2023-09-19T03:21:55;100707.16;;;14.22;100.00
37202;BME280;37799;52.390;6.136;2023-09-19T03:24:22;100709.69;;;14.23;100.00
37202;BME280;37799;52.390;6.136;2023-09-19T03:26:48;100711.06;;;14.11;100.00
37202;BME280;37799;52.390;6.136;2023-09-19T03:29:14;100708.19;;;14.17;100.00
37202;BME280;37799;52.390;6.136;2023-09-19T03:31:39;100705.94;;;14.10;100.00
37202;BME280;37799;52.390;6.136;2023-09-19T03:34:04;100702.09;;;13.98;100.00
37202;BME280;37799;52.390;6.136;2023-09-19T03:36:30;100701.81;;;14.04;100.00
37202;BME280;37799;52.390;6.136;2023-09-19T03:38:55;100702.88;;;14.00;100.00
37202;BME280;37799;52.390;6.136;2023-09-19T03:41:21;100707.53;;;13.92;100.00
37202;BME280;37799;52.390;6.136;2023-09-19T03:43:46;100708.00;;;14.02;100.00
37202;BME280;37799;52.390;6.136;2023-09-19T03:46:12;100702.22;;;13.95;100.00
37202;BME280;37799;52.390;6.136;2023-09-19T03:48:40;100699.78;;;13.91;100.00
37202;BME280;37799;52.390;6.136;2023-09-19T03:51:05;100690.50;;;13.85;100.00
37202;BME280;37799;52.390;6.136;2023-09-19T03:53:31;100696.22;;;13.73;100.00
37202;BME280;37799;52.390;6.136;2023-09-19T03:55:56;100692.41;;;13.80;100.00
37202;BME280;37799;52.390;6.136;2023-09-19T03:58:22;100697.91;;;13.74;100.00
37202;BME280;37799;52.390;6.136;2023-09-19T04:00:47;100692.03;;;13.69;100.00
37202;BME280;37799;52.390;6.136;2023-09-19T04:03:15;100698.47;;;13.60;100.00
37202;BME280;37799;52.390;6.136;2023-09-19T04:05:46;100690.66;;;13.60;100.00
37202;BME280;37799;52.390;6.136;2023-09-19T04:08:12;100703.72;;;13.58;100.00
37202;BME280;37799;52.390;6.136;2023-09-19T04:10:38;100705.13;;;13.45;100.00
37202;BME280;37799;52.390;6.136;2023-09-19T04:13:03;100712.81;;;13.48;100.00
37202;BME280;37799;52.390;6.136;2023-09-19T04:15:29;100726.72;;;13.47;100.00
37202;BME280;37799;52.390;6.136;2023-09-19T04:17:54;100726.72;;;13.47;100.00
37202;BME280;37799;52.390;6.136;2023-09-19T04:20:20;100723.34;;;13.45;100.00
37202;BME280;37799;52.390;6.136;2023-09-19T04:22:47;100732.19;;;13.41;100.00
37202;BME280;37799;52.390;6.136;2023-09-19T04:25:13;100727.19;;;13.35;100.00
37202;BME280;37799;52.390;6.136;2023-09-19T04:27:38;100742.81;;;13.35;100.00
37202;BME280;37799;52.390;6.136;2023-09-19T04:30:05;100746.75;;;13.45;100.00
37202;BME280;37799;52.390;6.136;2023-09-19T04:32:35;100752.50;;;13.32;100.00
37202;BME280;37799;52.390;6.136;2023-09-19T04:35:04;100750.53;;;13.37;100.00
37202;BME280;37799;52.390;6.136;2023-09-19T04:37:31;100758.66;;;13.29;100.00
37202;BME280;37799;52.390;6.136;2023-09-19T04:39:56;100756.28;;;13.23;100.00
37202;BME280;37799;52.390;6.136;2023-09-19T04:42:22;100753.69;;;13.23;100.00
37202;BME280;37799;52.390;6.136;2023-09-19T04:44:49;100759.00;;;13.20;100.00
37202;BME280;37799;52.390;6.136;2023-09-19T04:47:15;100761.06;;;13.34;100.00
37202;BME280;37799;52.390;6.136;2023-09-19T04:49:41;100767.78;;;13.16;100.00
37202;BME280;37799;52.390;6.136;2023-09-19T04:52:06;100763.94;;;13.26;100.00
37202;BME280;37799;52.390;6.136;2023-09-19T04:54:32;100769.19;;;13.48;100.00
37202;BME280;37799;52.390;6.136;2023-09-19T04:56:59;100774.13;;;13.54;100.00
37202;BME280;37799;52.390;6.136;2023-09-19T04:59:24;100772.31;;;13.34;100.00
37202;BME280;37799;52.390;6.136;2023-09-19T05:01:49;100783.06;;;13.25;100.00
37202;BME280;37799;52.390;6.136;2023-09-19T05:04:15;100778.56;;;13.30;100.00
37202;BME280;37799;52.390;6.136;2023-09-19T05:06:40;100778.03;;;13.20;100.00
37202;BME280;37799;52.390;6.136;2023-09-19T05:09:05;100771.63;;;13.06;100.00
37202;BME280;37799;52.390;6.136;2023-09-19T05:11:31;100759.63;;;13.02;100.00
37202;BME280;37799;52.390;6.136;2023-09-19T05:13:56;100763.06;;;13.04;100.00
37202;BME280;37799;52.390;6.136;2023-09-19T05:16:21;100761.97;;;12.86;100.00
37202;BME280;37799;52.390;6.136;2023-09-19T05:18:47;100767.91;;;12.89;100.00
37202;BME280;37799;52.390;6.136;2023-09-19T05:21:12;100770.97;;;12.77;100.00
37202;BME280;37799;52.390;6.136;2023-09-19T05:23:38;100767.09;;;12.87;100.00
37202;BME280;37799;52.390;6.136;2023-09-19T05:26:03;100777.06;;;12.99;100.00
37202;BME280;37799;52.390;6.136;2023-09-19T05:28:29;100777.16;;;12.96;100.00
37202;BME280;37799;52.390;6.136;2023-09-19T05:30:54;100785.53;;;13.05;100.00
37202;BME280;37799;52.390;6.136;2023-09-19T05:33:20;100784.91;;;12.98;100.00
37202;BME280;37799;52.390;6.136;2023-09-19T05:35:47;100783.94;;;13.00;100.00
37202;BME280;37799;52.390;6.136;2023-09-19T05:38:13;100790.94;;;12.98;100.00
37202;BME280;37799;52.390;6.136;2023-09-19T05:40:39;100785.63;;;13.02;100.00
37202;BME280;37799;52.390;6.136;2023-09-19T05:43:08;100777.41;;;12.90;100.00
37202;BME280;37799;52.390;6.136;2023-09-19T05:45:34;100775.03;;;13.08;100.00
37202;BME280;37799;52.390;6.136;2023-09-19T05:48:10;100773.22;;;13.10;100.00
37202;BME280;37799;52.390;6.136;2023-09-19T05:50:37;100771.56;;;13.07;100.00
37202;BME280;37799;52.390;6.136;2023-09-19T05:53:02;100776.38;;;13.18;100.00
37202;BME280;37799;52.390;6.136;2023-09-19T05:55:29;100772.31;;;13.34;100.00
37202;BME280;37799;52.390;6.136;2023-09-19T05:57:54;100778.75;;;13.47;100.00
37202;BME280;37799;52.390;6.136;2023-09-19T06:00:21;100776.06;;;13.49;100.00
37202;BME280;37799;52.390;6.136;2023-09-19T06:02:52;100792.31;;;13.55;100.00
37202;BME280;37799;52.390;6.136;2023-09-19T06:05:18;100797.25;;;13.62;100.00
37202;BME280;37799;52.390;6.136;2023-09-19T06:07:43;100805.63;;;13.70;100.00
37202;BME280;37799;52.390;6.136;2023-09-19T06:10:09;100801.56;;;13.63;100.00
37202;BME280;37799;52.390;6.136;2023-09-19T06:12:41;100814.81;;;13.56;100.00
37202;BME280;37799;52.390;6.136;2023-09-19T06:15:11;100816.97;;;13.45;100.00
37202;BME280;37799;52.390;6.136;2023-09-19T06:17:51;100808.84;;;13.54;100.00
37202;BME280;37799;52.390;6.136;2023-09-19T06:20:16;100801.13;;;13.51;100.00
37202;BME280;37799;52.390;6.136;2023-09-19T06:22:44;100805.84;;;13.64;100.00
37202;BME280;37799;52.390;6.136;2023-09-19T06:25:10;100811.78;;;13.45;100.00
37202;BME280;37799;52.390;6.136;2023-09-19T06:27:38;100811.59;;;13.50;100.00
37202;BME280;37799;52.390;6.136;2023-09-19T06:30:04;100819.34;;;13.51;100.00
37202;BME280;37799;52.390;6.136;2023-09-19T06:32:31;100822.78;;;13.52;100.00
37202;BME280;37799;52.390;6.136;2023-09-19T06:34:56;100822.44;;;13.61;100.00
37202;BME280;37799;52.390;6.136;2023-09-19T06:37:27;100815.28;;;13.66;100.00
37202;BME280;37799;52.390;6.136;2023-09-19T06:39:52;100818.31;;;13.77;100.00
37202;BME280;37799;52.390;6.136;2023-09-19T06:42:18;100811.78;;;13.89;100.00
37202;BME280;37799;52.390;6.136;2023-09-19T06:44:43;100811.66;;;13.92;100.00
37202;BME280;37799;52.390;6.136;2023-09-19T06:47:09;100810.94;;;14.10;100.00
37202;BME280;37799;52.390;6.136;2023-09-19T06:49:35;100797.84;;;14.12;100.00
37202;BME280;37799;52.390;6.136;2023-09-19T06:52:01;100812.84;;;14.27;100.00
37202;BME280;37799;52.390;6.136;2023-09-19T06:54:28;100813.44;;;14.34;100.00
37202;BME280;37799;52.390;6.136;2023-09-19T06:56:57;100806.19;;;14.40;100.00
37202;BME280;37799;52.390;6.136;2023-09-19T06:59:23;100810.22;;;14.49;100.00
37202;BME280;37799;52.390;6.136;2023-09-19T07:01:49;100810.31;;;14.66;100.00
37202;BME280;37799;52.390;6.136;2023-09-19T07:04:15;100803.41;;;14.86;100.00
37202;BME280;37799;52.390;6.136;2023-09-19T07:06:42;100803.88;;;15.14;100.00
37202;BME280;37799;52.390;6.136;2023-09-19T07:09:08;100808.66;;;15.04;100.00
37202;BME280;37799;52.390;6.136;2023-09-19T07:11:33;100805.63;;;15.32;100.00
37202;BME280;37799;52.390;6.136;2023-09-19T07:13:59;100811.28;;;15.42;100.00
37202;BME280;37799;52.390;6.136;2023-09-19T07:16:24;100805.25;;;15.59;100.00
37202;BME280;37799;52.390;6.136;2023-09-19T07:18:54;100815.78;;;15.76;100.00
37202;BME280;37799;52.390;6.136;2023-09-19T07:21:22;100813.28;;;15.92;100.00
37202;BME280;37799;52.390;6.136;2023-09-19T07:23:47;100812.28;;;15.95;100.00
37202;BME280;37799;52.390;6.136;2023-09-19T07:26:12;100813.47;;;16.06;100.00
37202;BME280;37799;52.390;6.136;2023-09-19T07:28:38;100821.31;;;16.23;100.00
37202;BME280;37799;52.390;6.136;2023-09-19T07:31:03;100827.44;;;16.40;100.00
37202;BME280;37799;52.390;6.136;2023-09-19T07:33:30;100833.69;;;16.55;100.00
37202;BME280;37799;52.390;6.136;2023-09-19T07:35:55;100841.28;;;16.59;100.00
37202;BME280;37799;52.390;6.136;2023-09-19T07:38:20;100840.28;;;16.62;100.00
37202;BME280;37799;52.390;6.136;2023-09-19T07:40:46;100835.06;;;16.79;100.00
37202;BME280;37799;52.390;6.136;2023-09-19T07:43:12;100840.03;;;16.68;100.00
37202;BME280;37799;52.390;6.136;2023-09-19T07:45:37;100837.97;;;16.38;100.00
37202;BME280;37799;52.390;6.136;2023-09-19T07:48:03;100840.59;;;16.38;100.00
37202;BME280;37799;52.390;6.136;2023-09-19T07:50:33;100847.03;;;16.67;100.00
37202;BME280;37799;52.390;6.136;2023-09-19T07:52:58;100833.28;;;16.62;100.00
37202;BME280;37799;52.390;6.136;2023-09-19T07:55:24;100834.13;;;16.63;100.00
37202;BME280;37799;52.390;6.136;2023-09-19T07:57:51;100843.63;;;16.83;100.00
37202;BME280;37799;52.390;6.136;2023-09-19T08:00:17;100846.91;;;16.86;100.00
37202;BME280;37799;52.390;6.136;2023-09-19T08:02:44;100853.78;;;17.04;100.00
37202;BME280;37799;52.390;6.136;2023-09-19T08:05:10;100847.78;;;17.02;100.00
37202;BME280;37799;52.390;6.136;2023-09-19T08:07:41;100849.34;;;17.06;100.00
37202;BME280;37799;52.390;6.136;2023-09-19T08:10:07;100866.78;;;17.39;100.00
37202;BME280;37799;52.390;6.136;2023-09-19T08:12:34;100857.50;;;17.49;100.00
37202;BME280;37799;52.390;6.136;2023-09-19T08:15:02;100850.25;;;17.70;100.00
37202;BME280;37799;52.390;6.136;2023-09-19T08:17:28;100864.63;;;17.94;100.00
37202;BME280;37799;52.390;6.136;2023-09-19T08:19:53;100857.16;;;18.18;100.00
37202;BME280;37799;52.390;6.136;2023-09-19T08:22:21;100860.28;;;18.55;100.00
37202;BME280;37799;52.390;6.136;2023-09-19T08:24:48;100860.50;;;18.36;100.00
37202;BME280;37799;52.390;6.136;2023-09-19T08:27:14;100867.69;;;18.63;100.00
37202;BME280;37799;52.390;6.136;2023-09-19T08:29:40;100857.34;;;18.75;100.00
37202;BME280;37799;52.390;6.136;2023-09-19T08:32:05;100856.53;;;19.03;100.00
37202;BME280;37799;52.390;6.136;2023-09-19T08:34:31;100861.69;;;19.33;100.00
37202;BME280;37799;52.390;6.136;2023-09-19T08:37:03;100863.34;;;19.49;100.00
37202;BME280;37799;52.390;6.136;2023-09-19T08:39:28;100868.06;;;19.58;100.00
37202;BME280;37799;52.390;6.136;2023-09-19T08:41:59;100863.84;;;19.55;100.00
37202;BME280;37799;52.390;6.136;2023-09-19T08:44:25;100864.38;;;19.46;100.00
37202;BME280;37799;52.390;6.136;2023-09-19T08:46:54;100857.94;;;19.23;100.00
37202;BME280;37799;52.390;6.136;2023-09-19T08:52:22;100851.94;;;19.21;100.00
37202;BME280;37799;52.390;6.136;2023-09-19T08:54:52;100864.09;;;19.51;100.00
37202;BME280;37799;52.390;6.136;2023-09-19T08:57:21;100858.94;;;19.49;100.00
37202;BME280;37799;52.390;6.136;2023-09-19T08:59:48;100847.59;;;19.49;100.00
37202;BME280;37799;52.390;6.136;2023-09-19T09:02:15;100853.69;;;19.35;100.00
37202;BME280;37799;52.390;6.136;2023-09-19T09:04:41;100849.31;;;19.21;100.00
37202;BME280;37799;52.390;6.136;2023-09-19T09:07:11;100860.09;;;19.02;100.00
37202;BME280;37799;52.390;6.136;2023-09-19T09:09:38;100851.94;;;18.78;100.00
37202;BME280;37799;52.390;6.136;2023-09-19T09:12:09;100862.31;;;18.66;100.00
37202;BME280;37799;52.390;6.136;2023-09-19T09:14:35;100864.50;;;19.02;100.00
37202;BME280;37799;52.390;6.136;2023-09-19T09:17:00;100856.81;;;19.27;100.00
37202;BME280;37799;52.390;6.136;2023-09-19T09:19:26;100851.47;;;19.14;100.00
37202;BME280;37799;52.390;6.136;2023-09-19T09:21:51;100844.06;;;19.21;100.00
37202;BME280;37799;52.390;6.136;2023-09-19T09:24:35;100843.47;;;19.59;100.00
37202;BME280;37799;52.390;6.136;2023-09-19T09:27:06;100856.97;;;19.67;100.00
37202;BME280;37799;52.390;6.136;2023-09-19T09:29:47;100854.22;;;20.10;100.00
37202;BME280;37799;52.390;6.136;2023-09-19T09:32:18;100855.47;;;20.17;100.00
37202;BME280;37799;52.390;6.136;2023-09-19T09:34:45;100851.50;;;20.64;100.00
37202;BME280;37799;52.390;6.136;2023-09-19T09:37:17;100856.31;;;20.44;100.00
37202;BME280;37799;52.390;6.136;2023-09-19T09:39:54;100849.59;;;19.86;100.00
37202;BME280;37799;52.390;6.136;2023-09-19T09:42:34;100843.44;;;20.00;100.00
37202;BME280;37799;52.390;6.136;2023-09-19T09:45:20;100844.78;;;20.20;100.00
37202;BME280;37799;52.390;6.136;2023-09-19T09:47:53;100842.88;;;20.49;100.00
37202;BME280;37799;52.390;6.136;2023-09-19T09:50:27;100852.47;;;20.88;100.00
37202;BME280;37799;52.390;6.136;2023-09-19T09:53:29;100862.56;;;21.19;100.00
37202;BME280;37799;52.390;6.136;2023-09-19T09:56:09;100857.00;;;20.73;100.00
37202;BME280;37799;52.390;6.136;2023-09-19T09:58:49;100861.09;;;20.77;100.00
37202;BME280;37799;52.390;6.136;2023-09-19T10:01:14;100859.84;;;20.57;100.00
37202;BME280;37799;52.390;6.136;2023-09-19T10:03:41;100854.06;;;20.38;100.00
37202;BME280;37799;52.390;6.136;2023-09-19T10:06:15;100842.34;;;19.90;100.00
37202;BME280;37799;52.390;6.136;2023-09-19T10:09:07;100842.56;;;19.87;100.00
37202;BME280;37799;52.390;6.136;2023-09-19T10:11:44;100844.97;;;20.17;100.00
37202;BME280;37799;52.390;6.136;2023-09-19T10:14:12;100831.75;;;20.83;100.00
37202;BME280;37799;52.390;6.136;2023-09-19T10:16:45;100852.69;;;21.36;100.00
37202;BME280;37799;52.390;6.136;2023-09-19T10:19:15;100845.53;;;20.87;100.00
37202;BME280;37799;52.390;6.136;2023-09-19T10:21:41;100837.91;;;21.08;100.00
37202;BME280;37799;52.390;6.136;2023-09-19T10:24:08;100834.75;;;21.15;100.00
37202;BME280;37799;52.390;6.136;2023-09-19T10:26:36;100836.22;;;21.19;100.00
37202;BME280;37799;52.390;6.136;2023-09-19T10:29:03;100832.25;;;21.27;100.00
37202;BME280;37799;52.390;6.136;2023-09-19T10:31:32;100826.78;;;20.79;100.00
37202;BME280;37799;52.390;6.136;2023-09-19T10:34:03;100824.25;;;20.90;100.00
37202;BME280;37799;52.390;6.136;2023-09-19T10:36:32;100815.00;;;20.46;100.00
37202;BME280;37799;52.390;6.136;2023-09-19T10:39:01;100819.31;;;20.47;100.00
37202;BME280;37799;52.390;6.136;2023-09-19T10:41:31;100816.69;;;20.73;100.00
37202;BME280;37799;52.390;6.136;2023-09-19T10:44:02;100845.09;;;20.80;100.00
37202;BME280;37799;52.390;6.136;2023-09-19T10:46:28;100835.28;;;20.70;100.00
37202;BME280;37799;52.390;6.136;2023-09-19T10:48:59;100829.88;;;20.33;100.00
37202;BME280;37799;52.390;6.136;2023-09-19T10:51:25;100822.13;;;19.78;100.00
37202;BME280;37799;52.390;6.136;2023-09-19T10:54:06;100824.25;;;19.58;100.00
37202;BME280;37799;52.390;6.136;2023-09-19T10:56:38;100809.56;;;19.13;100.00
37202;BME280;37799;52.390;6.136;2023-09-19T10:59:11;100802.34;;;19.31;100.00
37202;BME280;37799;52.390;6.136;2023-09-19T11:01:45;100795.66;;;19.81;100.00
37202;BME280;37799;52.390;6.136;2023-09-19T11:04:29;100794.91;;;20.06;100.00
37202;BME280;37799;52.390;6.136;2023-09-19T11:09:54;100783.50;;;20.70;100.00
37202;BME280;37799;52.390;6.136;2023-09-19T11:14:54;100781.31;;;20.51;100.00
37202;BME280;37799;52.390;6.136;2023-09-19T11:30:40;100775.59;;;20.19;100.00
37202;BME280;37799;52.390;6.136;2023-09-19T11:33:20;100766.97;;;19.90;100.00
37202;BME280;37799;52.390;6.136;2023-09-19T11:36:34;100776.75;;;19.88;100.00
37202;BME280;37799;52.390;6.136;2023-09-19T11:39:01;100772.31;;;19.76;100.00
37202;BME280;37799;52.390;6.136;2023-09-19T11:41:37;100763.25;;;19.67;100.00
37202;BME280;37799;52.390;6.136;2023-09-19T11:49:16;100758.03;;;19.80;100.00
37202;BME280;37799;52.390;6.136;2023-09-19T11:51:45;100764.13;;;20.20;100.00
37202;BME280;37799;52.390;6.136;2023-09-19T11:54:13;100755.50;;;20.18;100.00
37202;BME280;37799;52.390;6.136;2023-09-19T11:56:44;100764.47;;;20.54;100.00
37202;BME280;37799;52.390;6.136;2023-09-19T11:59:11;100759.00;;;20.70;100.00
37202;BME280;37799;52.390;6.136;2023-09-19T12:01:38;100765.31;;;20.80;100.00
37202;BME280;37799;52.390;6.136;2023-09-19T12:04:11;100759.19;;;20.92;100.00
37202;BME280;37799;52.390;6.136;2023-09-19T12:06:36;100764.47;;;20.79;100.00
37202;BME280;37799;52.390;6.136;2023-09-19T12:09:04;100762.75;;;20.40;100.00
37202;BME280;37799;52.390;6.136;2023-09-19T12:11:41;100757.56;;;20.00;100.00
37202;BME280;37799;52.390;6.136;2023-09-19T12:14:08;100776.16;;;19.97;100.00
37202;BME280;37799;52.390;6.136;2023-09-19T12:16:33;100763.75;;;19.99;100.00
37202;BME280;37799;52.390;6.136;2023-09-19T12:19:17;100764.63;;;20.25;100.00
37202;BME280;37799;52.390;6.136;2023-09-19T12:21:54;100763.28;;;20.32;100.00
37202;BME280;37799;52.390;6.136;2023-09-19T12:24:19;100755.44;;;20.58;100.00
37202;BME280;37799;52.390;6.136;2023-09-19T12:26:46;100759.88;;;21.07;100.00
37202;BME280;37799;52.390;6.136;2023-09-19T12:29:19;100748.59;;;21.30;100.00
37202;BME280;37799;52.390;6.136;2023-09-19T12:31:48;100741.59;;;21.42;100.00
37202;BME280;37799;52.390;6.136;2023-09-19T12:34:28;100757.78;;;21.12;100.00
37202;BME280;37799;52.390;6.136;2023-09-19T12:39:46;100756.69;;;20.65;100.00
37202;BME280;37799;52.390;6.136;2023-09-19T12:42:17;100759.06;;;20.30;100.00
37202;BME280;37799;52.390;6.136;2023-09-19T12:44:46;100751.34;;;20.01;100.00
37202;BME280;37799;52.390;6.136;2023-09-19T12:47:18;100746.03;;;19.76;100.00
37202;BME280;37799;52.390;6.136;2023-09-19T12:50:11;100735.38;;;20.04;100.00
37202;BME280;37799;52.390;6.136;2023-09-19T12:52:47;100729.81;;;20.09;100.00
37202;BME280;37799;52.390;6.136;2023-09-19T12:55:29;100739.53;;;20.34;100.00
37202;BME280;37799;52.390;6.136;2023-09-19T12:58:13;100740.25;;;20.36;100.00
37202;BME280;37799;52.390;6.136;2023-09-19T13:00:42;100737.50;;;20.12;100.00
37202;BME280;37799;52.390;6.136;2023-09-19T13:03:15;100734.91;;;19.85;100.00
37202;BME280;37799;52.390;6.136;2023-09-19T13:05:57;100744.28;;;19.89;100.00
37202;BME280;37799;52.390;6.136;2023-09-19T13:08:28;100741.78;;;19.61;100.00
37202;BME280;37799;52.390;6.136;2023-09-19T13:11:09;100739.16;;;19.61;100.00
37202;BME280;37799;52.390;6.136;2023-09-19T13:13:45;100736.06;;;19.54;100.00
37202;BME280;37799;52.390;6.136;2023-09-19T13:16:15;100739.47;;;19.56;100.00
37202;BME280;37799;52.390;6.136;2023-09-19T13:18:46;100728.56;;;19.48;100.00
37202;BME280;37799;52.390;6.136;2023-09-19T13:21:13;100732.94;;;19.62;100.00
37202;BME280;37799;52.390;6.136;2023-09-19T13:23:56;100733.72;;;19.50;100.00